ROMMA est une association bénévole à but non lucratif. Votre soutien est indispensable : ADHERER à ROMMA ou FAIRE un DON

Taninges - (74, Haute-Savoie)

Vallée du Giffre (635 m)   Longitude: 06° 35' 38" E   Latitude: 46° 06' 21" N Station romma n°98
 

Détail journalier du     <<     >>

Température Precipitation Humidité Pression Vent Dir Rafale Dir. rafale Ensol.
Heure (°C) (mm) (%) (hPa) (km/h) (km/h) (min)
01:00 7.0093101606S0
02:00 5.809310161SE3S0
03:00 4.9094101603SO0
04:00 4.4096101703SO0
05:00 3.309510171SO3SO0
06:00 2.9095101705SSO0
07:00 3.409610171SSE5ESE0
08:00 5.909710171E3E35
09:00 9.809410171SSE5ESE60
10:00 13.907710162SO11OSO60
11:00 15.107410169SO18SO60
12:00 17.6071101510OSO23OSO60
13:00 18.305910159O21OSO60
14:00 18.005310168ONO21ONO10
15:00 19.1048101511O31OSO45
16:00 20.1044101510O24ONO40
17:00 19.204410156ONO23O15
18:00 20.304310158O19O50
19:00 19.404110158O21O55
20:00 18.804410158ONO18O60
21:00 15.705510165NE11E15
22:00 14.405910165NE18ENE0
23:00 13.406210174NNE18E0
minuit 9.708010173O19E0

Graphique du 22-05-2019

 

Serveur OMMA